Kawasaki, Japan
Current Conditions -  °F | °C
As of 10:30 PM on Wednesday 22 Oct 2014 (Local Time) from RJTT Reporting Station
Rain Showers Rain Showers  
Wind Chill: 57°   Ceiling: 6000
Heat Index: 57°   Visibility: 6mi
Dew Point: 55°   Wind: 20mph
Humidity: 94%   Direction: 20°NNE
Pressure: 29.94"   Gusts: NA
Location:  35.53°N, 139.7°E
Report Text: RJTT 221330Z 02017KT 9999 -SHRA SCT010 BKN060 BKN100 14/13 Q1014 TEMPO FEW006 BKN012 RMK 4CU010 5SC060 7AC100 A2996
Loading
Personal Weather Stations






























Interactive Weather Map New forecast layout! Learn more

10-Day Weather Forecast

Advertisements
Track Severe Weather on mobile